createdAt,value
2017-08-08T00:07:19.810Z,13.7
2017-08-08T00:17:35.413Z,13.4
2017-08-08T00:27:50.425Z,13.5
2017-08-08T00:38:04.891Z,13.8
2017-08-08T00:48:19.221Z,13.9
2017-08-08T00:58:34.134Z,13.8
2017-08-08T01:08:49.474Z,13.9
2017-08-08T01:19:03.924Z,13.7
2017-08-08T01:29:19.125Z,13.9
2017-08-08T01:39:33.924Z,13.7
2017-08-08T01:49:47.665Z,13.3
2017-08-08T02:00:02.725Z,12.9
2017-08-08T02:10:18.104Z,12.7
2017-08-08T02:20:33.117Z,12.5
2017-08-08T02:30:48.082Z,13
2017-08-08T02:41:02.861Z,13
2017-08-08T02:51:18.080Z,13.3
2017-08-08T03:01:33.754Z,12.9
2017-08-08T03:11:48.949Z,12.5
2017-08-08T03:22:03.508Z,12.7
2017-08-08T03:32:18.411Z,12.7
2017-08-08T03:42:32.187Z,13.1
2017-08-08T03:52:45.974Z,13.7
2017-08-08T04:03:01.199Z,13.8
2017-08-08T04:13:16.338Z,14.1
2017-08-08T04:23:31.417Z,14.5
2017-08-08T04:33:46.883Z,15.1
2017-08-08T04:44:01.710Z,15.6
2017-08-08T04:54:16.502Z,15.4
2017-08-08T05:04:31.938Z,15.7
2017-08-08T05:14:46.097Z,15.8
2017-08-08T05:24:59.880Z,16.1
2017-08-08T05:35:14.062Z,16.5
2017-08-08T05:45:28.281Z,16.9
2017-08-08T05:55:42.947Z,16.9
2017-08-08T06:05:56.823Z,17
2017-08-08T06:16:11.623Z,17
2017-08-08T06:26:26.590Z,17.1
2017-08-08T06:36:40.487Z,17.6
2017-08-08T06:46:56.206Z,17.9
2017-08-08T06:57:10.913Z,18.8
2017-08-08T07:07:25.395Z,19.8
2017-08-08T07:17:41.040Z,21.3
2017-08-08T07:27:55.923Z,22.5
2017-08-08T07:38:09.964Z,23
2017-08-08T07:48:25.371Z,21.7
2017-08-08T07:58:40.635Z,21.4
2017-08-08T08:08:55.492Z,21
2017-08-08T08:19:11.273Z,21.3
2017-08-08T08:29:26.303Z,21.8
2017-08-08T08:39:40.297Z,21.9
2017-08-08T08:49:54.358Z,22.1
2017-08-08T09:00:09.824Z,22.2
2017-08-08T09:10:24.886Z,22.4
2017-08-08T09:20:40.502Z,22.8
2017-08-08T09:30:55.232Z,23.3
2017-08-08T09:41:10.217Z,23.8
2017-08-08T09:51:25.920Z,23.4
2017-08-08T10:01:40.678Z,23.3
2017-08-08T10:11:55.877Z,22.8
2017-08-08T10:22:09.860Z,22.5
2017-08-08T10:32:24.312Z,22.5
2017-08-08T10:42:38.891Z,22.2
2017-08-08T10:52:53.458Z,22.4
2017-08-08T11:03:08.136Z,22.4
2017-08-08T11:13:23.226Z,22.2
2017-08-08T11:23:37.559Z,21.9
2017-08-08T11:33:51.903Z,21.6
2017-08-08T11:44:06.838Z,21.7
2017-08-08T11:54:22.191Z,22
2017-08-08T12:04:37.597Z,21.5
2017-08-08T12:14:51.565Z,20.9
2017-08-08T12:25:05.618Z,20.5
2017-08-08T12:35:19.845Z,20.8
2017-08-08T12:45:35.531Z,21.4
2017-08-08T12:55:50.286Z,21.3
2017-08-08T13:06:05.976Z,20.7
2017-08-08T13:16:21.545Z,20.6
2017-08-08T13:26:36.806Z,20.4
2017-08-08T13:36:51.189Z,20.5
2017-08-08T13:47:05.496Z,20.3
2017-08-08T13:57:20.001Z,20.2
2017-08-08T14:07:35.177Z,20
2017-08-08T14:17:49.342Z,18.9
2017-08-08T14:28:03.698Z,18.4
2017-08-08T14:38:19.737Z,18.5
2017-08-08T14:48:34.723Z,17.9
2017-08-08T14:58:48.597Z,17.4
2017-08-08T15:09:03.510Z,17.7
2017-08-08T15:19:17.909Z,17.8
2017-08-08T15:29:33.063Z,19.5
2017-08-08T15:39:48.798Z,19.1
2017-08-08T15:50:04.357Z,20.4
2017-08-08T16:00:19.776Z,19.7
2017-08-08T16:10:34.684Z,20.6
2017-08-08T16:20:48.996Z,19.6
2017-08-08T16:31:03.384Z,19.1
2017-08-08T16:41:18.434Z,18.9
2017-08-08T16:51:34.005Z,18.9
2017-08-08T17:01:48.261Z,18.8
2017-08-08T17:12:03.693Z,18.8
2017-08-08T17:22:18.047Z,18.8
2017-08-08T17:32:32.812Z,18.8
2017-08-08T17:42:48.155Z,18.6
2017-08-08T17:53:02.959Z,18.4
2017-08-08T18:03:17.846Z,18.3
2017-08-08T18:13:31.638Z,18.4
2017-08-08T18:23:46.554Z,18.5
2017-08-08T18:34:00.688Z,18.3
2017-08-08T18:44:15.952Z,18.2
2017-08-08T18:54:31.379Z,18
2017-08-08T19:04:46.578Z,17.7
2017-08-08T19:15:02.053Z,17.7
2017-08-08T19:25:17.195Z,17.4
2017-08-08T19:35:32.230Z,16.9
2017-08-08T19:45:47.319Z,16.8
2017-08-08T19:56:02.765Z,16.6
2017-08-08T20:06:18.067Z,16.5
2017-08-08T20:16:31.856Z,16.4
2017-08-08T20:26:46.289Z,16.3
2017-08-08T20:37:01.572Z,16.2
2017-08-08T20:47:17.025Z,16
2017-08-08T20:57:31.611Z,15.9
2017-08-08T21:07:47.007Z,15.7
2017-08-08T21:18:02.123Z,15.7
2017-08-08T21:28:17.038Z,15.5
2017-08-08T21:38:32.132Z,15.3
2017-08-08T21:48:47.576Z,14.8
2017-08-08T21:59:01.583Z,14.5
2017-08-08T22:09:15.410Z,14.2
2017-08-08T22:19:29.828Z,14
2017-08-08T22:29:45.274Z,13.9
2017-08-08T22:39:59.332Z,13.8
2017-08-08T22:50:14.993Z,13.7
2017-08-08T23:00:28.952Z,13.6
2017-08-08T23:10:43.841Z,13.5
2017-08-08T23:20:58.107Z,13.6
2017-08-08T23:31:12.413Z,13.5
2017-08-08T23:41:26.314Z,13.5
2017-08-08T23:51:41.309Z,13.4
